Pagrindinis puslapis
METAR-TAF:

METAR-TAF

Oro uostai :

Kiurasao, Nyderlandų Antilai

platuma: 12-12N, ilguma: 068-58W, Aukštis: 9 m

Dabartinis oras

Ataskaita buvo paskelbta 30 minutes, ne 10:00 UTC
Vėjas 8 kt iš Rytų/Pietryčių
Temperatūra 27°C
Drėgmė 79%
Slėgis 1009 hPa
Matomumas 10 km arba daugiau
Mažai debesys ne aukštis 1800 ft, aukštai iškilę kamuoliniai debesys.

METAR: TNCC 121000Z AUTO 12008KT 9999 FEW018TCU 27/23 Q1009 NOSIG

Laikas: 06:30 (10:30 UTC)

Prognozė

Ataskaita buvo paskelbta 5 valandos ir 15 minutes, ne 05:15 UTC
Prognozė galioja nuo 12 metu 06 UTC su 13 metu 06 UTC
Vėjas 10 kt iš Rytų
Matomumas 10 km arba daugiau
Mažai debesys ne aukštis 1800 ft
Laikinai
nuo 12 metu 06 UTC su 12 metu 10 UTC
Su prošvaistėmis ne aukštis 1400 ft

TAF: TNCC 120515Z 1206/1306 10010KT 9999 FEW018 TEMPO 1206/1210 BKN014

Orai ataskaitas ir orų prognozės (METAR, TAF).

turimą stotys yra geltonos ir raudonos taškus žemėlapyje.

Perkelti pele per norėdami pamatyti stoties vardą.

Tada spustelėkite, norėdami matyti oro stebėjimo ir prognozės.

Norėdami pakeisti žemėlapį: spustelėkite ant žalios mygtukų su juodo kryžiaus žemyn,; žalią mygtuką su brūkšneliu, jei norite nutolinti; arba žalių rodyklių gretimoms žemėlapius.


METAR-TAF: